createdAt,value
2019-04-22T00:00:53.575Z,95190.91
2019-04-22T00:03:21.755Z,95187.67
2019-04-22T00:06:06.578Z,95189.77
2019-04-22T00:08:43.936Z,95186.66
2019-04-22T00:11:19.608Z,95186.32
2019-04-22T00:13:46.899Z,95183.36
2019-04-22T00:16:10.460Z,95187.86
2019-04-22T00:18:54.844Z,95180.54
2019-04-22T00:21:12.994Z,95176.13
2019-04-22T00:23:39.450Z,95177.34
2019-04-22T00:26:08.770Z,95176.45
2019-04-22T00:28:36.555Z,95175.97
2019-04-22T00:31:21.309Z,95178.77
2019-04-22T00:33:52.942Z,95167.27
2019-04-22T00:36:24.118Z,95166.22
2019-04-22T00:38:54.322Z,95161.23
2019-04-22T00:41:21.456Z,95162.87
2019-04-22T00:44:00.004Z,95166.73
2019-04-22T00:46:25.158Z,95163.00
2019-04-22T00:48:57.597Z,95160.70
2019-04-22T00:51:25.293Z,95162.64
2019-04-22T00:53:53.087Z,95168.56
2019-04-22T00:59:03.945Z,95155.74
2019-04-22T01:01:20.740Z,95156.03
2019-04-22T01:06:17.286Z,95159.22
2019-04-22T01:08:53.654Z,95155.60
2019-04-22T01:11:17.305Z,95145.91
2019-04-22T01:13:47.024Z,95145.54
2019-04-22T01:16:17.669Z,95146.19
2019-04-22T01:18:43.788Z,95145.69
2019-04-22T01:21:21.499Z,95135.75
2019-04-22T01:23:40.791Z,95139.30
2019-04-22T01:26:09.510Z,95131.56
2019-04-22T01:28:38.707Z,95130.36
2019-04-22T01:31:02.001Z,95132.02
2019-04-22T01:33:32.465Z,95125.59
2019-04-22T01:36:15.579Z,95119.39
2019-04-22T01:38:45.357Z,95133.47
2019-04-22T01:41:16.862Z,95121.80
2019-04-22T01:43:53.747Z,95129.55
2019-04-22T01:46:19.745Z,95128.67
2019-04-22T01:48:50.616Z,95125.81
2019-04-22T01:51:08.193Z,95122.33
2019-04-22T01:53:50.354Z,95120.70
2019-04-22T01:56:17.500Z,95124.55
2019-04-22T01:58:35.668Z,95121.47
2019-04-22T02:01:14.660Z,95112.39
2019-04-22T02:03:52.466Z,95107.48
2019-04-22T02:06:17.262Z,95115.02
2019-04-22T02:08:45.165Z,95115.78
2019-04-22T02:11:08.315Z,95103.83
2019-04-22T02:16:10.680Z,95099.55
2019-04-22T02:18:39.346Z,95099.56
2019-04-22T02:21:01.523Z,95093.48
2019-04-22T02:23:51.375Z,95090.03
2019-04-22T02:26:07.599Z,95083.95
2019-04-22T02:28:47.678Z,95087.04
2019-04-22T02:34:01.871Z,95079.41
2019-04-22T02:38:51.669Z,95078.58
2019-04-22T02:47:14.109Z,95070.50
2019-04-22T02:54:23.738Z,95055.77
2019-04-22T02:59:03.905Z,95050.97
2019-04-22T03:04:06.816Z,95052.70
2019-04-22T03:08:59.612Z,95047.33
2019-04-22T03:11:25.386Z,95039.93
2019-04-22T03:13:55.158Z,95044.25
2019-04-22T03:16:26.675Z,95034.93
2019-04-22T03:18:59.078Z,95035.46
2019-04-22T03:21:18.839Z,95033.78
2019-04-22T03:24:05.917Z,95030.45
2019-04-22T03:32:36.032Z,95029.47
2019-04-22T03:35:20.311Z,95027.14
2019-04-22T03:42:07.301Z,95018.27
2019-04-22T03:47:12.175Z,95020.77
2019-04-22T03:54:40.375Z,95025.13
2019-04-22T03:59:39.961Z,95019.22
2019-04-22T04:02:04.250Z,95019.43
2019-04-22T04:09:28.661Z,95016.27
2019-04-22T04:14:26.849Z,95014.86
2019-04-22T04:17:00.212Z,95015.92
2019-04-22T04:19:23.224Z,95016.97
2019-04-22T04:21:48.498Z,95015.35
2019-04-22T04:24:32.863Z,95006.52
2019-04-22T04:26:59.222Z,95011.61
2019-04-22T04:31:55.574Z,95010.38
2019-04-22T04:34:33.824Z,95011.10
2019-04-22T04:37:14.981Z,95019.31
2019-04-22T04:39:22.089Z,95010.20
2019-04-22T04:44:22.723Z,95014.67
2019-04-22T04:49:18.569Z,95012.22
2019-04-22T04:51:59.250Z,95017.66
2019-04-22T05:11:46.741Z,95009.95
2019-04-22T05:14:06.299Z,94999.77
2019-04-22T05:18:58.680Z,95001.80
2019-04-22T05:21:26.707Z,94999.33
2019-04-22T05:24:05.521Z,95003.30
2019-04-22T05:26:30.984Z,94994.60
2019-04-22T05:29:03.814Z,94996.96
2019-04-22T05:31:22.515Z,94988.66
2019-04-22T05:33:56.397Z,94992.63
2019-04-22T05:36:40.264Z,94992.73
2019-04-22T05:38:57.607Z,94994.23
2019-04-22T05:41:26.645Z,94986.92
2019-04-22T05:43:50.199Z,94983.83
2019-04-22T05:46:20.218Z,94980.55
2019-04-22T05:48:53.952Z,94979.78
2019-04-22T05:51:18.116Z,94982.10
2019-04-22T05:53:48.293Z,94975.39
2019-04-22T05:56:28.052Z,94968.78
2019-04-22T05:58:54.106Z,94970.71
2019-04-22T06:03:50.923Z,94962.24
2019-04-22T06:06:18.194Z,94954.56
2019-04-22T06:08:48.292Z,94956.39
2019-04-22T06:11:17.092Z,94943.23
2019-04-22T06:13:38.463Z,94947.32
2019-04-22T06:16:09.218Z,94944.74
2019-04-22T06:18:44.853Z,94942.80
2019-04-22T06:23:46.367Z,94932.18
2019-04-22T06:31:15.788Z,94924.39
2019-04-22T06:33:41.578Z,94921.77
2019-04-22T06:36:08.143Z,94914.85
2019-04-22T06:38:39.227Z,94914.67
2019-04-22T06:46:08.100Z,94896.83
2019-04-22T06:48:36.260Z,94900.38
2019-04-22T06:51:06.373Z,94887.34
2019-04-22T06:53:37.471Z,94884.08
2019-04-22T06:56:07.473Z,94882.56
2019-04-22T06:58:36.600Z,94873.28
2019-04-22T07:01:04.255Z,94869.69
2019-04-22T07:10:56.611Z,94851.38
2019-04-22T07:13:34.398Z,94843.77
2019-04-22T07:15:57.483Z,94836.68
2019-04-22T07:18:32.698Z,94830.33
2019-04-22T07:20:59.711Z,94827.89
2019-04-22T07:23:31.967Z,94821.06
2019-04-22T07:25:52.111Z,94814.65
2019-04-22T07:28:21.683Z,94815.95
2019-04-22T07:30:53.399Z,94811.94
2019-04-22T07:33:27.776Z,94810.13
2019-04-22T07:36:11.043Z,94795.83
2019-04-22T07:38:29.963Z,94801.31
2019-04-22T07:40:51.881Z,94791.09
2019-04-22T07:43:32.874Z,94786.11
2019-04-22T07:45:51.850Z,94782.11
2019-04-22T07:48:31.577Z,94778.73
2019-04-22T07:50:58.335Z,94772.81
2019-04-22T07:53:19.834Z,94761.61
2019-04-22T07:55:48.997Z,94756.49
2019-04-22T07:58:18.737Z,94748.59
2019-04-22T08:00:48.487Z,94746.12
2019-04-22T08:03:22.714Z,94748.76
2019-04-22T08:05:51.920Z,94742.66
2019-04-22T08:08:21.579Z,94738.48
2019-04-22T08:13:14.985Z,94718.34
2019-04-22T08:15:47.144Z,94720.61
2019-04-22T08:18:20.288Z,94712.98
2019-04-22T08:20:41.046Z,94713.81
2019-04-22T08:25:43.189Z,94702.05
2019-04-22T08:28:10.655Z,94700.55
2019-04-22T08:30:40.821Z,94691.15
2019-04-22T08:33:17.291Z,94681.79
2019-04-22T08:35:52.458Z,94693.63
2019-04-22T08:38:19.353Z,94682.53
2019-04-22T08:40:43.110Z,94669.27
2019-04-22T08:43:14.427Z,94659.87
2019-04-22T08:45:46.202Z,94659.97
2019-04-22T08:48:08.664Z,94663.59
2019-04-22T08:50:38.843Z,94646.89
2019-04-22T08:53:08.113Z,94639.52
2019-04-22T08:55:40.538Z,94639.66
2019-04-22T09:00:44.183Z,94631.33
2019-04-22T09:03:04.430Z,94621.19
2019-04-22T09:08:09.406Z,94616.59
2019-04-22T09:10:37.792Z,94619.70
2019-04-22T09:15:34.442Z,94601.05
2019-04-22T09:18:12.766Z,94598.22
2019-04-22T09:20:34.971Z,94592.94
2019-04-22T09:25:29.773Z,94591.45
2019-04-22T09:28:05.758Z,94593.19
2019-04-22T09:30:34.409Z,94586.78
2019-04-22T09:33:02.880Z,94580.19
2019-04-22T09:35:31.535Z,94575.08
2019-04-22T09:38:12.026Z,94569.11
2019-04-22T09:40:31.501Z,94564.84
2019-04-22T09:42:56.089Z,94562.28
2019-04-22T09:45:43.927Z,94566.24
2019-04-22T09:48:00.923Z,94552.59
2019-04-22T09:50:33.573Z,94549.83
2019-04-22T09:52:54.903Z,94546.30
2019-04-22T09:55:22.793Z,94540.36
2019-04-22T09:57:52.756Z,94537.00
2019-04-22T10:00:28.390Z,94533.83
2019-04-22T10:05:27.449Z,94519.45
2019-04-22T10:07:54.828Z,94514.63
2019-04-22T10:10:30.300Z,94510.23
2019-04-22T10:12:46.769Z,94509.33
2019-04-22T10:15:19.501Z,94490.86
2019-04-22T10:17:54.793Z,94496.03
2019-04-22T10:20:24.381Z,94489.84
2019-04-22T10:23:05.878Z,94482.27
2019-04-22T10:25:21.582Z,94477.62
2019-04-22T10:27:51.981Z,94466.27
2019-04-22T10:30:23.535Z,94469.36
2019-04-22T10:32:59.191Z,94465.98
2019-04-22T10:35:12.273Z,94460.09
2019-04-22T10:37:34.730Z,94455.80
2019-04-22T10:40:07.420Z,94448.70
2019-04-22T10:42:43.135Z,94435.20
2019-04-22T10:45:12.364Z,94437.34
2019-04-22T10:47:40.379Z,94427.55
2019-04-22T10:50:08.418Z,94419.55
2019-04-22T10:52:37.192Z,94415.82
2019-04-22T10:55:07.233Z,94415.44
2019-04-22T10:57:35.987Z,94404.56
2019-04-22T11:00:04.998Z,94405.45
2019-04-22T11:02:32.421Z,94394.14
2019-04-22T11:04:59.787Z,94390.59
2019-04-22T11:07:36.175Z,94383.66
2019-04-22T11:10:17.549Z,94375.59
2019-04-22T11:12:31.886Z,94369.02
2019-04-22T11:14:58.241Z,94376.34
2019-04-22T11:17:26.081Z,94375.33
2019-04-22T11:19:53.492Z,94367.09
2019-04-22T11:22:26.317Z,94362.88
2019-04-22T11:24:50.831Z,94360.55
2019-04-22T11:27:18.897Z,94358.91
2019-04-22T11:29:47.668Z,94350.52
2019-04-22T11:32:15.130Z,94347.03
2019-04-22T11:34:42.903Z,94342.96
2019-04-22T11:37:10.493Z,94337.74
2019-04-22T11:39:38.691Z,94330.17
2019-04-22T11:42:06.262Z,94318.59
2019-04-22T11:44:35.307Z,94310.16
2019-04-22T11:47:03.503Z,94315.30
2019-04-22T11:49:31.997Z,94306.17
2019-04-22T11:52:00.978Z,94307.70
2019-04-22T11:54:28.960Z,94299.13
2019-04-22T11:59:24.941Z,94301.75
2019-04-22T12:01:52.959Z,94293.52
2019-04-22T12:04:20.488Z,94289.20
2019-04-22T12:06:49.622Z,94284.84
2019-04-22T12:09:17.861Z,94283.09
2019-04-22T12:11:46.871Z,94281.50
2019-04-22T12:14:15.791Z,94279.35
2019-04-22T12:16:43.691Z,94277.55
2019-04-22T12:19:11.454Z,94276.02
2019-04-22T12:21:39.388Z,94269.98
2019-04-22T12:24:07.163Z,94263.68
2019-04-22T12:26:34.650Z,94258.25
2019-04-22T12:29:02.815Z,94251.54
2019-04-22T12:31:31.471Z,94249.66
2019-04-22T12:33:59.360Z,94246.80
2019-04-22T12:36:26.913Z,94235.64
2019-04-22T12:38:55.671Z,94233.62
2019-04-22T12:41:23.697Z,94235.91
2019-04-22T12:43:51.542Z,94224.64
2019-04-22T12:46:20.408Z,94223.74
2019-04-22T12:48:48.072Z,94216.19
2019-04-22T12:51:15.490Z,94217.72
2019-04-22T12:53:44.578Z,94208.43
2019-04-22T12:56:12.680Z,94211.34
2019-04-22T12:58:41.217Z,94207.16
2019-04-22T13:01:08.904Z,94200.91
2019-04-22T13:03:36.277Z,94197.46
2019-04-22T13:06:03.864Z,94199.44
2019-04-22T13:08:31.774Z,94187.49
2019-04-22T13:11:06.861Z,94185.02
2019-04-22T13:13:29.118Z,94181.12
2019-04-22T13:15:57.078Z,94180.23
2019-04-22T13:18:33.998Z,94170.16
2019-04-22T13:20:54.742Z,94170.26
2019-04-22T13:23:22.434Z,94164.65
2019-04-22T13:25:49.823Z,94155.98
2019-04-22T13:28:18.901Z,94159.25
2019-04-22T13:30:46.583Z,94157.91
2019-04-22T13:33:14.864Z,94141.44
2019-04-22T13:35:43.822Z,94143.51
2019-04-22T13:38:12.700Z,94131.92
2019-04-22T13:40:57.722Z,94134.45
2019-04-22T13:43:11.066Z,94133.07
2019-04-22T13:45:40.637Z,94129.28
2019-04-22T13:48:24.089Z,94121.20
2019-04-22T13:51:03.462Z,94120.98
2019-04-22T13:55:56.580Z,94106.38
2019-04-22T13:58:21.210Z,94099.98
2019-04-22T14:00:36.402Z,94099.98
2019-04-22T14:03:29.051Z,94109.55
2019-04-22T14:05:56.814Z,94105.75
2019-04-22T14:08:24.963Z,94086.77
2019-04-22T14:10:52.622Z,94086.77
2019-04-22T14:13:20.048Z,94090.42
2019-04-22T14:15:48.690Z,94091.52
2019-04-22T14:18:16.913Z,94085.50
2019-04-22T14:20:44.943Z,94082.44
2019-04-22T14:23:14.281Z,94075.03
2019-04-22T14:25:43.000Z,94079.50
2019-04-22T14:28:16.917Z,94068.47
2019-04-22T14:30:39.947Z,94067.86
2019-04-22T14:33:07.391Z,94062.99
2019-04-22T14:35:35.446Z,94056.77
2019-04-22T14:38:04.247Z,94061.26
2019-04-22T14:40:32.941Z,94054.02
2019-04-22T14:43:25.367Z,94049.50
2019-04-22T14:46:03.497Z,94047.98
2019-04-22T14:48:28.696Z,94041.98
2019-04-22T14:50:51.613Z,94034.99
2019-04-22T14:53:21.392Z,94033.23
2019-04-22T14:55:36.354Z,94033.23
2019-04-22T14:58:02.396Z,94039.35
2019-04-22T15:00:30.065Z,94032.63
2019-04-22T15:02:57.674Z,94035.52
2019-04-22T15:05:26.067Z,94027.13
2019-04-22T15:07:54.951Z,94019.34
2019-04-22T15:10:24.434Z,94019.34
2019-04-22T15:12:56.567Z,94008.32
2019-04-22T15:15:46.989Z,94013.44
2019-04-22T15:18:33.542Z,94001.93
2019-04-22T15:21:06.900Z,94009.87
2019-04-22T15:23:34.868Z,94009.37
2019-04-22T15:26:02.357Z,94013.93
2019-04-22T15:28:29.673Z,94018.87
2019-04-22T15:30:57.460Z,94013.73
2019-04-22T15:33:25.703Z,94008.58
2019-04-22T15:35:55.542Z,94010.53
2019-04-22T15:38:24.350Z,94012.81
2019-04-22T15:40:54.584Z,94018.30
2019-04-22T15:43:25.517Z,94020.69
2019-04-22T15:45:52.881Z,94020.80
2019-04-22T15:48:21.275Z,94018.89
2019-04-22T15:50:48.884Z,94027.03
2019-04-22T15:53:18.008Z,94026.72
2019-04-22T15:55:48.066Z,94030.91
2019-04-22T15:58:21.783Z,94038.07
2019-04-22T16:01:00.055Z,94041.79
2019-04-22T16:03:24.830Z,94035.97
2019-04-22T16:05:52.454Z,94041.05
2019-04-22T16:08:21.154Z,94030.45
2019-04-22T16:10:48.873Z,94041.09
2019-04-22T16:13:23.046Z,94034.22
2019-04-22T16:15:48.812Z,94032.30
2019-04-22T16:18:18.098Z,94032.61
2019-04-22T16:20:46.152Z,94025.03
2019-04-22T16:23:38.257Z,94028.31
2019-04-22T16:26:28.538Z,94024.08
2019-04-22T16:28:59.609Z,94017.64
2019-04-22T16:31:29.384Z,94013.44
2019-04-22T16:34:07.532Z,94010.20
2019-04-22T16:36:34.608Z,94017.78
2019-04-22T16:39:04.706Z,94015.89
2019-04-22T16:41:35.706Z,94018.94
2019-04-22T16:44:10.174Z,94016.55
2019-04-22T16:46:37.670Z,94014.41
2019-04-22T16:49:07.476Z,94014.19
2019-04-22T16:51:36.179Z,94007.36
2019-04-22T16:54:08.576Z,94013.42
2019-04-22T16:56:37.197Z,94009.91
2019-04-22T16:59:06.511Z,94000.32
2019-04-22T17:01:56.919Z,94007.12
2019-04-22T17:04:50.887Z,94002.01
2019-04-22T17:07:20.592Z,94005.59
2019-04-22T17:09:50.444Z,94002.24
2019-04-22T17:12:17.787Z,94007.59
2019-04-22T17:14:52.723Z,94010.92
2019-04-22T17:17:14.916Z,94005.73
2019-04-22T17:19:45.181Z,94012.59
2019-04-22T17:22:13.357Z,94001.81
2019-04-22T17:24:43.709Z,94008.28
2019-04-22T17:27:14.732Z,94015.33
2019-04-22T17:29:50.555Z,94008.81
2019-04-22T17:32:21.095Z,94012.63
2019-04-22T17:34:49.676Z,94008.75
2019-04-22T17:37:22.182Z,94009.45
2019-04-22T17:40:02.440Z,94014.72
2019-04-22T17:42:35.568Z,94009.67
2019-04-22T17:45:33.589Z,94012.84
2019-04-22T17:48:22.327Z,94012.48
2019-04-22T17:51:02.261Z,94009.86
2019-04-22T17:53:26.158Z,94016.64
2019-04-22T17:56:00.598Z,94016.37
2019-04-22T17:58:25.694Z,94014.16
2019-04-22T18:00:56.710Z,94012.39
2019-04-22T18:03:17.581Z,94019.05
2019-04-22T18:05:43.781Z,94021.72
2019-04-22T18:08:25.209Z,94021.91
2019-04-22T18:10:56.121Z,94017.27
2019-04-22T18:13:26.487Z,94024.22
2019-04-22T18:15:53.030Z,94018.89
2019-04-22T18:18:23.410Z,94018.97
2019-04-22T18:20:45.884Z,94022.41
2019-04-22T18:23:09.628Z,94028.47
2019-04-22T18:25:52.182Z,94028.92
2019-04-22T18:28:28.274Z,94034.63
2019-04-22T18:30:47.820Z,94035.44
2019-04-22T18:33:22.943Z,94040.74
2019-04-22T18:35:44.391Z,94039.83
2019-04-22T18:38:32.488Z,94035.72
2019-04-22T18:40:59.054Z,94037.20
2019-04-22T18:43:33.963Z,94047.97
2019-04-22T18:46:09.526Z,94042.62
2019-04-22T18:48:37.787Z,94051.39
2019-04-22T18:51:18.850Z,94050.61
2019-04-22T18:54:06.496Z,94044.91
2019-04-22T18:56:42.141Z,94049.20
2019-04-22T18:59:05.079Z,94045.05
2019-04-22T19:01:24.125Z,94046.89
2019-04-22T19:04:04.699Z,94052.56
2019-04-22T19:06:50.235Z,94053.28
2019-04-22T19:09:20.443Z,94042.91
2019-04-22T19:12:01.867Z,94047.82
2019-04-22T19:14:35.303Z,94051.36
2019-04-22T19:17:02.935Z,94053.37
2019-04-22T19:21:49.469Z,94063.21
2019-04-22T19:24:21.390Z,94069.08
2019-04-22T19:26:57.674Z,94066.16
2019-04-22T19:29:25.985Z,94063.98
2019-04-22T19:31:53.095Z,94073.92
2019-04-22T19:34:20.607Z,94070.43
2019-04-22T19:36:51.792Z,94072.18
2019-04-22T19:39:17.330Z,94077.71
2019-04-22T19:41:55.786Z,94078.66
2019-04-22T19:44:23.142Z,94082.70
2019-04-22T19:47:06.531Z,94088.80
2019-04-22T19:49:24.432Z,94085.06
2019-04-22T19:51:59.002Z,94082.93
2019-04-22T19:54:19.205Z,94086.20
2019-04-22T19:56:42.903Z,94085.02
2019-04-22T19:59:27.318Z,94082.81
2019-04-22T20:02:22.216Z,94079.39
2019-04-22T20:05:06.069Z,94089.19
2019-04-22T20:07:40.530Z,94090.48
2019-04-22T20:10:19.638Z,94090.89
2019-04-22T20:12:42.881Z,94084.95
2019-04-22T20:15:12.431Z,94078.04
2019-04-22T20:18:00.622Z,94078.41
2019-04-22T20:20:18.061Z,94078.77
2019-04-22T20:22:37.474Z,94074.48
2019-04-22T20:25:01.810Z,94075.22
2019-04-22T20:27:46.013Z,94073.77
2019-04-22T20:30:13.377Z,94063.58
2019-04-22T20:32:40.286Z,94060.33
2019-04-22T20:35:18.049Z,94059.45
2019-04-22T20:37:47.200Z,94056.97
2019-04-22T20:40:10.344Z,94054.11
2019-04-22T20:45:09.946Z,94044.48
2019-04-22T20:47:34.148Z,94040.30
2019-04-22T20:50:11.168Z,94044.81
2019-04-22T20:52:50.225Z,94046.49
2019-04-22T20:55:03.144Z,94044.16
2019-04-22T20:57:40.407Z,94047.17
2019-04-22T21:00:02.195Z,94040.95
2019-04-22T21:02:27.796Z,94043.16
2019-04-22T21:04:56.010Z,94035.25
2019-04-22T21:07:28.260Z,94042.48
2019-04-22T21:10:01.086Z,94040.02
2019-04-22T21:12:27.314Z,94038.81
2019-04-22T21:15:06.806Z,94038.69
2019-04-22T21:17:34.795Z,94038.62
2019-04-22T21:20:10.082Z,94044.67
2019-04-22T21:22:33.889Z,94033.92
2019-04-22T21:24:57.662Z,94040.02
2019-04-22T21:27:35.442Z,94035.38
2019-04-22T21:29:52.283Z,94030.95
2019-04-22T21:32:32.746Z,94035.66
2019-04-22T21:35:24.614Z,94034.09
2019-04-22T21:37:31.845Z,94037.57
2019-04-22T21:39:51.926Z,94036.03
2019-04-22T21:42:28.562Z,94031.96
2019-04-22T21:44:52.717Z,94029.06
2019-04-22T21:47:30.162Z,94031.23
2019-04-22T21:50:09.847Z,94032.69
2019-04-22T21:52:26.117Z,94031.92
2019-04-22T21:54:59.104Z,94035.00
2019-04-22T21:57:51.099Z,94023.62
2019-04-22T22:00:29.722Z,94026.44
2019-04-22T22:02:45.585Z,94029.84
2019-04-22T22:05:11.194Z,94027.95
2019-04-22T22:07:29.056Z,94033.72
2019-04-22T22:10:18.246Z,94030.78
2019-04-22T22:12:52.478Z,94035.28
2019-04-22T22:15:16.609Z,94037.26
2019-04-22T22:17:42.906Z,94035.53
2019-04-22T22:20:07.478Z,94028.41
2019-04-22T22:22:53.727Z,94025.95
2019-04-22T22:25:16.360Z,94021.55
2019-04-22T22:27:40.693Z,94024.45
2019-04-22T22:30:29.376Z,94029.72
2019-04-22T22:32:43.730Z,94027.75
2019-04-22T22:35:10.026Z,94026.14
2019-04-22T22:37:26.956Z,94029.46
2019-04-22T22:39:56.636Z,94024.38
2019-04-22T22:42:22.233Z,94022.08
2019-04-22T22:44:48.492Z,94017.14
2019-04-22T22:47:30.471Z,94019.92
2019-04-22T22:50:05.967Z,94013.55
2019-04-22T22:55:06.948Z,94008.41
2019-04-22T22:57:33.479Z,94012.75
2019-04-22T22:59:58.663Z,94005.45
2019-04-22T23:02:28.147Z,94014.84
2019-04-22T23:04:59.142Z,94014.96
2019-04-22T23:07:47.828Z,94011.68
2019-04-22T23:10:01.716Z,94014.60
2019-04-22T23:12:34.713Z,94014.42
2019-04-22T23:14:57.606Z,94008.30
2019-04-22T23:17:11.912Z,93999.64
2019-04-22T23:19:41.905Z,94004.51
2019-04-22T23:22:16.133Z,93998.58
2019-04-22T23:24:56.448Z,93996.54
2019-04-22T23:27:37.955Z,93999.23
2019-04-22T23:30:26.795Z,93997.20
2019-04-22T23:33:03.392Z,94008.29
2019-04-22T23:35:49.452Z,93996.98
2019-04-22T23:38:21.236Z,93983.59
2019-04-22T23:40:58.637Z,94006.20
2019-04-22T23:43:27.340Z,94007.02
2019-04-22T23:45:56.414Z,94008.05
2019-04-22T23:48:20.660Z,94010.86
2019-04-22T23:50:55.786Z,93997.80
2019-04-22T23:53:55.522Z,93994.39
2019-04-22T23:56:00.308Z,94002.16
2019-04-22T23:58:47.038Z,94004.95
